createdAt,value
2018-06-17T00:02:18.691Z,96.90
2018-06-17T00:04:52.480Z,97.10
2018-06-17T00:07:26.434Z,97.00
2018-06-17T00:10:00.479Z,97.30
2018-06-17T00:12:34.578Z,97.30
2018-06-17T00:15:08.696Z,97.40
2018-06-17T00:17:43.165Z,97.60
2018-06-17T00:20:17.100Z,97.70
2018-06-17T00:22:50.995Z,97.80
2018-06-17T00:25:25.112Z,97.80
2018-06-17T00:30:32.866Z,97.40
2018-06-17T00:33:06.612Z,97.60
2018-06-17T00:35:40.978Z,97.60
2018-06-17T00:38:14.828Z,97.40
2018-06-17T00:40:48.802Z,97.50
2018-06-17T00:43:23.108Z,97.50
2018-06-17T00:45:56.974Z,97.60
2018-06-17T00:48:31.099Z,97.80
2018-06-17T00:51:05.185Z,97.70
2018-06-17T00:53:39.180Z,97.70
2018-06-17T00:56:13.100Z,97.70
2018-06-17T00:58:47.006Z,97.70
2018-06-17T01:01:21.011Z,97.90
2018-06-17T01:03:55.048Z,97.80
2018-06-17T01:06:28.994Z,97.80
2018-06-17T01:09:03.475Z,97.90
2018-06-17T01:11:37.395Z,98.20
2018-06-17T01:14:11.168Z,98.10
2018-06-17T01:16:45.100Z,98.20
2018-06-17T01:19:19.008Z,98.00
2018-06-17T01:21:53.170Z,98.00
2018-06-17T01:24:27.183Z,98.00
2018-06-17T01:27:01.156Z,97.90
2018-06-17T01:29:36.035Z,97.80
2018-06-17T01:32:10.245Z,97.80
2018-06-17T01:34:44.224Z,97.70
2018-06-17T01:37:17.918Z,97.70
2018-06-17T01:39:52.425Z,97.80
2018-06-17T01:42:26.208Z,97.90
2018-06-17T01:45:00.602Z,97.70
2018-06-17T01:47:34.674Z,98.00
2018-06-17T01:50:08.483Z,97.90
2018-06-17T01:52:42.265Z,98.00
2018-06-17T01:55:16.464Z,98.00
2018-06-17T01:57:50.554Z,98.00
2018-06-17T02:00:24.828Z,98.10
2018-06-17T02:03:02.980Z,98.00
2018-06-17T02:05:42.683Z,98.00
2018-06-17T02:08:22.635Z,98.10
2018-06-17T02:11:02.044Z,98.10
2018-06-17T02:13:35.863Z,98.10
2018-06-17T02:16:10.030Z,98.40
2018-06-17T02:18:43.691Z,98.10
2018-06-17T02:21:17.649Z,98.10
2018-06-17T02:23:52.248Z,98.00
2018-06-17T02:26:26.073Z,98.00
2018-06-17T02:28:59.968Z,97.90
2018-06-17T02:31:34.012Z,98.10
2018-06-17T02:34:07.990Z,98.00
2018-06-17T02:36:42.024Z,98.00
2018-06-17T02:39:16.105Z,98.10
2018-06-17T02:41:49.941Z,97.90
2018-06-17T02:44:23.944Z,97.60
2018-06-17T02:49:39.007Z,97.20
2018-06-17T02:52:18.611Z,97.40
2018-06-17T02:54:52.733Z,97.50
2018-06-17T02:57:26.851Z,97.70
2018-06-17T03:00:01.067Z,97.50
2018-06-17T03:02:35.134Z,97.60
2018-06-17T03:05:09.061Z,97.20
2018-06-17T03:07:43.262Z,97.20
2018-06-17T03:10:17.169Z,97.20
2018-06-17T03:12:50.968Z,97.50
2018-06-17T03:15:25.612Z,97.20
2018-06-17T03:17:59.624Z,96.70
2018-06-17T03:20:34.223Z,96.80
2018-06-17T03:23:08.315Z,96.90
2018-06-17T03:25:47.694Z,96.40
2018-06-17T03:28:27.328Z,96.30
2018-06-17T03:31:07.061Z,96.30
2018-06-17T03:33:52.133Z,96.40
2018-06-17T03:36:26.121Z,96.30
2018-06-17T03:41:33.880Z,96.20
2018-06-17T03:44:07.815Z,95.60
2018-06-17T03:46:41.776Z,95.50
2018-06-17T03:49:15.712Z,95.80
2018-06-17T03:51:49.849Z,95.70
2018-06-17T03:54:23.661Z,95.80
2018-06-17T03:56:57.934Z,95.40
2018-06-17T03:59:31.908Z,95.40
2018-06-17T04:02:05.945Z,95.40
2018-06-17T04:04:45.606Z,95.20
2018-06-17T04:07:19.513Z,95.30
2018-06-17T04:09:53.599Z,95.40
2018-06-17T04:12:27.762Z,95.10
2018-06-17T04:15:01.451Z,95.10
2018-06-17T04:17:35.378Z,94.40
2018-06-17T04:20:09.163Z,94.10
2018-06-17T04:22:43.034Z,93.30
2018-06-17T04:25:17.149Z,92.90
2018-06-17T04:27:51.060Z,92.70
2018-06-17T04:30:24.859Z,92.70
2018-06-17T04:32:59.224Z,92.20
2018-06-17T04:35:32.979Z,91.50
2018-06-17T04:38:06.804Z,91.00
2018-06-17T04:40:40.914Z,91.50
2018-06-17T04:43:15.404Z,90.30
2018-06-17T04:45:49.520Z,90.50
2018-06-17T04:48:24.460Z,91.20
2018-06-17T04:50:58.231Z,91.30
2018-06-17T04:53:32.038Z,91.20
2018-06-17T04:56:06.100Z,90.80
2018-06-17T04:58:39.849Z,91.20
2018-06-17T05:01:13.741Z,91.10
2018-06-17T05:03:48.416Z,90.90
2018-06-17T05:06:22.319Z,90.80
2018-06-17T05:08:56.360Z,90.90
2018-06-17T05:11:30.800Z,90.90
2018-06-17T05:14:05.043Z,90.30
2018-06-17T05:16:38.859Z,90.20
2018-06-17T05:19:12.943Z,90.00
2018-06-17T05:21:46.915Z,89.50
2018-06-17T05:24:21.074Z,88.40
2018-06-17T05:26:54.916Z,88.80
2018-06-17T05:29:28.694Z,88.30
2018-06-17T05:32:03.085Z,86.90
2018-06-17T05:34:36.988Z,88.60
2018-06-17T05:37:10.891Z,87.10
2018-06-17T05:39:44.860Z,85.40
2018-06-17T05:42:18.754Z,84.70
2018-06-17T05:44:52.827Z,83.70
2018-06-17T05:47:26.851Z,82.70
2018-06-17T05:50:00.919Z,83.00
2018-06-17T05:52:34.891Z,82.20
2018-06-17T05:55:08.824Z,81.10
2018-06-17T05:57:42.569Z,81.90
2018-06-17T06:00:16.512Z,79.90
2018-06-17T06:02:50.500Z,80.60
2018-06-17T06:05:24.402Z,80.30
2018-06-17T06:07:58.879Z,80.70
2018-06-17T06:10:33.000Z,79.20
2018-06-17T06:13:06.855Z,78.20
2018-06-17T06:15:41.023Z,78.20
2018-06-17T06:18:14.900Z,76.30
2018-06-17T06:20:49.079Z,76.60
2018-06-17T06:23:22.901Z,76.20
2018-06-17T06:25:57.105Z,74.70
2018-06-17T06:28:31.047Z,74.50
2018-06-17T06:31:05.378Z,74.20
2018-06-17T06:33:39.956Z,74.00
2018-06-17T06:36:13.873Z,73.40
2018-06-17T06:38:47.940Z,74.60
2018-06-17T06:41:21.846Z,75.30
2018-06-17T06:43:56.607Z,73.90
2018-06-17T06:46:30.404Z,74.90
2018-06-17T06:49:04.275Z,73.90
2018-06-17T06:51:38.265Z,74.80
2018-06-17T06:54:12.479Z,74.70
2018-06-17T06:56:46.526Z,73.90
2018-06-17T06:59:20.308Z,76.20
2018-06-17T07:02:05.642Z,74.60
2018-06-17T07:04:51.183Z,73.30
2018-06-17T07:07:36.705Z,72.30
2018-06-17T07:10:23.112Z,73.30
2018-06-17T07:12:57.011Z,72.50
2018-06-17T07:15:42.365Z,72.30
2018-06-17T07:18:31.288Z,73.30
2018-06-17T07:21:05.487Z,73.00
2018-06-17T07:23:39.658Z,72.70
2018-06-17T07:26:30.313Z,72.20
2018-06-17T07:29:15.946Z,70.50
2018-06-17T07:31:49.776Z,69.80
2018-06-17T07:34:23.992Z,69.10
2018-06-17T07:36:58.431Z,69.40
2018-06-17T07:41:42.134Z,69.90
2018-06-17T07:44:15.909Z,69.40
2018-06-17T07:46:49.996Z,67.20
2018-06-17T07:49:37.550Z,68.40
2018-06-17T07:52:23.820Z,68.20
2018-06-17T07:54:58.164Z,68.10
2018-06-17T07:57:33.237Z,67.70
2018-06-17T08:00:07.496Z,68.20
2018-06-17T08:02:41.457Z,68.80
2018-06-17T08:05:15.622Z,67.90
2018-06-17T08:07:49.729Z,68.20
2018-06-17T08:10:23.575Z,67.60
2018-06-17T08:12:57.490Z,67.70
2018-06-17T08:15:31.380Z,66.60
2018-06-17T08:18:05.539Z,66.90
2018-06-17T08:20:39.756Z,66.40
2018-06-17T08:23:14.063Z,66.90
2018-06-17T08:25:48.079Z,67.40
2018-06-17T08:28:22.206Z,67.20
2018-06-17T08:30:56.336Z,66.20
2018-06-17T08:33:30.496Z,65.10
2018-06-17T08:36:04.435Z,64.70
2018-06-17T08:38:38.434Z,64.10
2018-06-17T08:41:12.815Z,65.50
2018-06-17T08:43:46.911Z,64.80
2018-06-17T08:46:21.176Z,64.40
2018-06-17T08:48:54.987Z,63.90
2018-06-17T08:51:29.724Z,63.20
2018-06-17T08:54:03.901Z,64.70
2018-06-17T08:56:38.289Z,65.80
2018-06-17T08:59:12.474Z,65.00
2018-06-17T09:01:46.400Z,64.80
2018-06-17T09:06:54.514Z,66.00
2018-06-17T09:09:28.371Z,65.50
2018-06-17T09:12:02.306Z,65.60
2018-06-17T09:14:36.555Z,63.40
2018-06-17T09:17:10.910Z,63.10
2018-06-17T09:19:51.743Z,62.10
2018-06-17T09:22:25.602Z,63.10
2018-06-17T09:25:03.510Z,64.00
2018-06-17T09:27:37.724Z,65.10
2018-06-17T09:30:11.975Z,63.60
2018-06-17T09:32:46.021Z,63.60
2018-06-17T09:35:20.404Z,62.80
2018-06-17T09:37:54.459Z,63.50
2018-06-17T09:40:28.666Z,63.60
2018-06-17T09:43:02.955Z,63.10
2018-06-17T09:45:36.755Z,61.90
2018-06-17T09:48:10.760Z,61.50
2018-06-17T09:50:44.991Z,61.90
2018-06-17T09:53:19.431Z,63.10
2018-06-17T10:01:01.102Z,61.00
2018-06-17T10:03:35.265Z,61.50
2018-06-17T10:06:09.375Z,61.30
2018-06-17T10:08:43.500Z,60.80
2018-06-17T10:11:18.210Z,61.50
2018-06-17T10:13:52.405Z,61.60
2018-06-17T10:16:26.635Z,62.20
2018-06-17T10:19:00.688Z,62.40
2018-06-17T10:21:35.031Z,62.50
2018-06-17T10:26:42.962Z,63.00
2018-06-17T10:31:51.065Z,62.30
2018-06-17T10:36:58.657Z,63.40
2018-06-17T10:39:32.847Z,61.30
2018-06-17T10:42:06.972Z,61.40
2018-06-17T10:44:41.011Z,61.20
2018-06-17T10:47:15.555Z,60.40
2018-06-17T10:49:49.904Z,60.90
2018-06-17T10:52:24.325Z,58.90
2018-06-17T10:54:58.462Z,59.50
2018-06-17T10:57:32.629Z,59.50
2018-06-17T11:00:07.641Z,58.50
2018-06-17T11:02:41.694Z,58.90
2018-06-17T11:05:15.843Z,57.30
2018-06-17T11:10:24.292Z,57.20
2018-06-17T11:12:58.567Z,57.60
2018-06-17T11:15:32.626Z,56.70
2018-06-17T11:18:07.149Z,56.40
2018-06-17T11:20:41.305Z,56.40
2018-06-17T11:23:15.450Z,55.80
2018-06-17T11:25:49.541Z,56.10
2018-06-17T11:28:23.871Z,56.00
2018-06-17T11:30:59.585Z,56.10
2018-06-17T11:33:33.739Z,55.50
2018-06-17T11:36:07.750Z,56.00
2018-06-17T11:38:42.116Z,56.00
2018-06-17T11:41:16.502Z,55.50
2018-06-17T11:43:50.686Z,55.40
2018-06-17T11:46:29.430Z,55.70
2018-06-17T11:49:03.416Z,55.90
2018-06-17T11:51:38.631Z,56.50
2018-06-17T11:54:12.428Z,56.40
2018-06-17T11:56:46.786Z,55.70
2018-06-17T11:59:20.661Z,56.30
2018-06-17T12:01:54.836Z,57.10
2018-06-17T12:04:28.923Z,57.10
2018-06-17T12:07:02.976Z,56.40
2018-06-17T12:09:37.296Z,55.80
2018-06-17T12:12:11.459Z,54.60
2018-06-17T12:14:46.465Z,55.10
2018-06-17T12:17:20.624Z,55.80
2018-06-17T12:19:54.724Z,57.10
2018-06-17T12:22:29.023Z,54.60
2018-06-17T12:25:03.105Z,54.10
2018-06-17T12:27:37.054Z,55.10
2018-06-17T12:30:11.150Z,54.90
2018-06-17T12:32:45.457Z,55.30
2018-06-17T12:35:19.590Z,55.30
2018-06-17T12:37:53.695Z,55.30
2018-06-17T12:40:28.044Z,54.50
2018-06-17T12:43:02.199Z,54.00
2018-06-17T12:45:36.235Z,54.90
2018-06-17T12:48:10.266Z,54.10
2018-06-17T12:50:44.172Z,53.70
2018-06-17T12:53:18.052Z,52.80
2018-06-17T12:55:52.907Z,54.10
2018-06-17T12:58:27.316Z,53.00
2018-06-17T13:01:01.527Z,50.70
2018-06-17T13:06:09.692Z,50.20
2018-06-17T13:08:43.808Z,51.80
2018-06-17T13:11:17.893Z,52.30
2018-06-17T13:13:51.854Z,53.80
2018-06-17T13:16:30.665Z,53.70
2018-06-17T13:19:05.248Z,55.60
2018-06-17T13:21:39.167Z,56.40
2018-06-17T13:24:13.272Z,55.70
2018-06-17T13:26:47.269Z,54.50
2018-06-17T13:29:21.719Z,55.70
2018-06-17T13:31:55.768Z,55.80
2018-06-17T13:34:29.968Z,55.30
2018-06-17T13:37:04.316Z,55.30
2018-06-17T13:39:38.549Z,56.20
2018-06-17T13:42:12.435Z,55.40
2018-06-17T13:44:46.586Z,56.30
2018-06-17T13:47:20.624Z,56.50
2018-06-17T13:49:54.808Z,56.40
2018-06-17T13:52:28.921Z,56.50
2018-06-17T13:55:02.966Z,56.40
2018-06-17T13:57:37.684Z,56.70
2018-06-17T14:00:11.730Z,57.30
2018-06-17T14:02:45.673Z,56.80
2018-06-17T14:05:19.865Z,58.20
2018-06-17T14:07:54.394Z,58.30
2018-06-17T14:10:28.525Z,57.60
2018-06-17T14:13:02.359Z,58.10
2018-06-17T14:15:36.664Z,57.90
2018-06-17T14:18:11.181Z,57.90
2018-06-17T14:20:45.205Z,59.20
2018-06-17T14:23:19.471Z,59.30
2018-06-17T14:25:53.344Z,59.70
2018-06-17T14:28:27.348Z,60.10
2018-06-17T14:31:01.375Z,61.00
2018-06-17T14:33:35.764Z,61.40
2018-06-17T14:36:10.059Z,61.00
2018-06-17T14:38:43.880Z,60.60
2018-06-17T14:41:19.084Z,61.00
2018-06-17T14:43:58.839Z,61.10
2018-06-17T14:46:38.442Z,61.70
2018-06-17T14:49:18.210Z,60.50
2018-06-17T14:51:57.695Z,59.10
2018-06-17T14:54:31.559Z,59.90
2018-06-17T14:57:05.762Z,57.60
2018-06-17T14:59:40.701Z,56.40
2018-06-17T15:02:14.725Z,55.60
2018-06-17T15:04:49.171Z,55.90
2018-06-17T15:07:23.722Z,56.20
2018-06-17T15:09:57.816Z,55.70
2018-06-17T15:12:31.759Z,57.00
2018-06-17T15:15:05.721Z,55.80
2018-06-17T15:17:39.983Z,56.70
2018-06-17T15:20:14.225Z,56.20
2018-06-17T15:22:48.066Z,56.80
2018-06-17T15:25:22.210Z,57.30
2018-06-17T15:27:56.572Z,57.00
2018-06-17T15:30:30.598Z,57.60
2018-06-17T15:33:10.469Z,58.10
2018-06-17T15:35:50.107Z,57.20
2018-06-17T15:38:29.783Z,57.30
2018-06-17T15:41:09.512Z,58.40
2018-06-17T15:43:43.461Z,58.40
2018-06-17T15:46:17.675Z,56.90
2018-06-17T15:51:25.895Z,56.70
2018-06-17T15:53:59.890Z,55.10
2018-06-17T15:56:33.936Z,54.40
2018-06-17T15:59:08.522Z,54.70
2018-06-17T16:04:16.869Z,56.30
2018-06-17T16:06:53.345Z,58.40
2018-06-17T16:09:27.324Z,57.60
2018-06-17T16:12:06.870Z,58.50
2018-06-17T16:14:46.505Z,59.00
2018-06-17T16:17:26.225Z,59.30
2018-06-17T16:21:08.752Z,58.80
2018-06-17T16:23:43.379Z,58.80
2018-06-17T16:26:17.695Z,59.10
2018-06-17T16:28:51.699Z,59.10
2018-06-17T16:31:25.777Z,59.40
2018-06-17T16:33:59.620Z,59.10
2018-06-17T16:36:33.806Z,60.30
2018-06-17T16:41:43.490Z,60.60
2018-06-17T16:44:17.493Z,59.50
2018-06-17T16:46:51.790Z,59.80
2018-06-17T16:49:25.861Z,59.80
2018-06-17T16:54:44.781Z,59.40
2018-06-17T16:58:26.417Z,59.50
2018-06-17T17:01:00.679Z,60.40
2018-06-17T17:06:09.037Z,60.70
2018-06-17T17:08:44.567Z,59.70
2018-06-17T17:11:18.851Z,59.60
2018-06-17T17:13:52.795Z,59.90
2018-06-17T17:16:27.056Z,59.40
2018-06-17T17:19:01.202Z,59.30
2018-06-17T17:21:35.451Z,59.20
2018-06-17T17:24:09.594Z,59.30
2018-06-17T17:29:18.441Z,58.20
2018-06-17T17:31:58.230Z,58.20
2018-06-17T17:34:38.025Z,59.10
2018-06-17T17:38:15.386Z,58.70
2018-06-17T17:40:52.907Z,58.70
2018-06-17T17:43:27.435Z,58.70
2018-06-17T17:46:07.236Z,59.00
2018-06-17T17:48:42.156Z,59.10
2018-06-17T17:53:50.421Z,59.40
2018-06-17T17:56:24.314Z,58.80
2018-06-17T17:58:58.352Z,58.70
2018-06-17T18:04:06.356Z,58.90
2018-06-17T18:06:40.712Z,59.00
2018-06-17T18:09:15.491Z,59.10
2018-06-17T18:17:02.381Z,59.20
2018-06-17T18:19:40.512Z,58.30
2018-06-17T18:22:14.570Z,58.00
2018-06-17T18:24:54.614Z,58.10
2018-06-17T18:27:38.702Z,58.50
2018-06-17T18:30:19.599Z,58.00
2018-06-17T18:32:59.390Z,58.00
2018-06-17T18:35:39.931Z,58.30
2018-06-17T18:38:13.921Z,58.20
2018-06-17T18:43:23.395Z,57.40
2018-06-17T18:45:57.592Z,58.40
2018-06-17T18:48:32.139Z,58.40
2018-06-17T18:51:06.587Z,58.60
2018-06-17T18:53:41.226Z,58.60
2018-06-17T18:56:15.216Z,58.70
2018-06-17T19:01:23.657Z,58.60
2018-06-17T19:03:57.945Z,58.70
2018-06-17T19:06:32.204Z,58.70
2018-06-17T19:09:12.980Z,59.00
2018-06-17T19:11:52.662Z,59.10
2018-06-17T19:14:32.306Z,59.50
2018-06-17T19:17:12.283Z,59.80
2018-06-17T19:19:47.150Z,59.60
2018-06-17T19:22:21.816Z,60.00
2018-06-17T19:24:56.015Z,60.50
2018-06-17T19:27:30.791Z,61.50
2018-06-17T19:30:08.274Z,61.00
2018-06-17T19:32:42.572Z,61.70
2018-06-17T19:35:16.608Z,62.00
2018-06-17T19:37:50.661Z,61.80
2018-06-17T19:40:24.709Z,61.80
2018-06-17T19:42:59.534Z,62.10
2018-06-17T19:45:34.326Z,62.60
2018-06-17T19:48:08.638Z,62.60
2018-06-17T19:50:48.070Z,63.20
2018-06-17T19:53:28.130Z,64.10
2018-06-17T19:56:07.761Z,63.30
2018-06-17T19:58:47.021Z,63.60
2018-06-17T20:01:21.280Z,64.10
2018-06-17T20:03:55.186Z,64.50
2018-06-17T20:06:29.167Z,64.00
2018-06-17T20:09:05.010Z,64.70
2018-06-17T20:11:39.335Z,64.90
2018-06-17T20:14:13.282Z,65.00
2018-06-17T20:16:47.705Z,64.60
2018-06-17T20:19:21.769Z,64.30
2018-06-17T20:21:56.186Z,64.90
2018-06-17T20:24:30.716Z,65.00
2018-06-17T20:27:05.016Z,65.00
2018-06-17T20:29:38.871Z,65.10
2018-06-17T20:32:18.625Z,65.00
2018-06-17T20:37:37.434Z,65.60
2018-06-17T20:41:15.016Z,65.90
2018-06-17T20:43:51.307Z,66.30
2018-06-17T20:46:25.535Z,66.40
2018-06-17T20:49:00.109Z,66.50
2018-06-17T20:51:34.839Z,67.40
2018-06-17T20:54:08.943Z,67.00
2018-06-17T20:56:43.059Z,67.30
2018-06-17T20:59:17.634Z,67.40
2018-06-17T21:01:51.768Z,67.70
2018-06-17T21:04:26.515Z,67.80
2018-06-17T21:07:00.395Z,68.60
2018-06-17T21:09:34.425Z,68.90
2018-06-17T21:12:08.528Z,68.80
2018-06-17T21:14:42.835Z,68.70
2018-06-17T21:17:16.705Z,69.00
2018-06-17T21:19:56.224Z,69.50
2018-06-17T21:22:35.843Z,69.50
2018-06-17T21:25:15.366Z,69.40
2018-06-17T21:27:51.158Z,69.50
2018-06-17T21:30:25.196Z,70.00
2018-06-17T21:32:59.403Z,71.10
2018-06-17T21:35:33.371Z,70.90
2018-06-17T21:38:07.363Z,71.70
2018-06-17T21:40:41.357Z,71.60
2018-06-17T21:43:15.280Z,71.40
2018-06-17T21:45:49.490Z,71.60
2018-06-17T21:48:23.334Z,72.30
2018-06-17T21:53:31.589Z,72.90
2018-06-17T21:56:05.634Z,73.00
2018-06-17T21:58:45.363Z,72.90
2018-06-17T22:01:19.749Z,72.50
2018-06-17T22:09:18.360Z,72.90
2018-06-17T22:11:57.904Z,73.60
2018-06-17T22:14:37.575Z,73.60
2018-06-17T22:17:17.249Z,73.80
2018-06-17T22:19:50.934Z,74.10
2018-06-17T22:22:24.973Z,74.10
2018-06-17T22:24:59.457Z,74.10
2018-06-17T22:27:33.400Z,74.10
2018-06-17T22:30:07.478Z,74.30
2018-06-17T22:32:41.400Z,74.40
2018-06-17T22:35:15.562Z,75.00
2018-06-17T22:37:49.550Z,75.00
2018-06-17T22:40:23.627Z,75.40
2018-06-17T22:42:58.343Z,75.70
2018-06-17T22:48:05.769Z,75.70
2018-06-17T22:50:39.937Z,75.90
2018-06-17T22:53:25.018Z,76.20
2018-06-17T22:55:59.715Z,76.60
2018-06-17T22:58:39.536Z,76.70
